createdAt,value
2023-02-03T00:01:50.524Z,99.71
2023-02-03T00:04:17.460Z,100.00
2023-02-03T00:06:44.244Z,99.52
2023-02-03T00:09:11.020Z,98.39
2023-02-03T00:11:37.733Z,97.62
2023-02-03T00:14:05.385Z,97.41
2023-02-03T00:16:32.008Z,96.62
2023-02-03T00:18:58.527Z,96.67
2023-02-03T00:21:25.046Z,96.79
2023-02-03T00:23:51.659Z,95.96
2023-02-03T00:26:18.425Z,96.46
2023-02-03T00:28:45.516Z,95.35
2023-02-03T00:31:17.222Z,94.38
2023-02-03T00:33:44.173Z,94.36
2023-02-03T00:36:11.388Z,94.75
2023-02-03T00:38:37.950Z,94.05
2023-02-03T00:41:04.612Z,93.48
2023-02-03T00:43:31.170Z,93.77
2023-02-03T00:45:57.782Z,94.73
2023-02-03T00:48:24.305Z,96.33
2023-02-03T00:50:50.842Z,96.41
2023-02-03T00:53:17.388Z,97.18
2023-02-03T00:55:46.377Z,98.48
2023-02-03T00:58:12.898Z,99.82
2023-02-03T01:00:39.776Z,100.00
2023-02-03T01:03:06.415Z,100.00
2023-02-03T01:05:32.961Z,100.00
2023-02-03T01:08:03.520Z,100.00
2023-02-03T01:10:30.430Z,100.00
2023-02-03T01:12:56.952Z,100.00
2023-02-03T01:15:23.559Z,100.00
2023-02-03T01:17:50.120Z,99.38
2023-02-03T01:20:17.118Z,99.71
2023-02-03T01:22:43.845Z,99.36
2023-02-03T01:25:11.590Z,99.62
2023-02-03T01:27:38.185Z,99.47
2023-02-03T01:30:05.241Z,99.81
2023-02-03T01:32:31.758Z,100.00
2023-02-03T01:34:58.287Z,100.00
2023-02-03T01:37:24.778Z,100.00
2023-02-03T01:39:51.333Z,100.00
2023-02-03T01:42:17.848Z,100.00
2023-02-03T01:44:51.177Z,100.00
2023-02-03T01:47:29.701Z,100.00
2023-02-03T01:50:22.859Z,100.00
2023-02-03T01:52:57.032Z,100.00
2023-02-03T01:55:28.346Z,100.00
2023-02-03T01:58:20.210Z,100.00
2023-02-03T02:00:49.296Z,100.00
2023-02-03T02:03:20.479Z,100.00
2023-02-03T02:05:57.866Z,100.00
2023-02-03T02:08:24.825Z,100.00
2023-02-03T02:10:51.620Z,100.00
2023-02-03T02:13:19.892Z,100.00
2023-02-03T02:15:55.584Z,100.00
2023-02-03T02:18:25.187Z,100.00
2023-02-03T02:21:28.482Z,100.00
2023-02-03T02:24:24.529Z,100.00
2023-02-03T02:27:00.430Z,100.00
2023-02-03T02:29:35.985Z,100.00
2023-02-03T02:32:02.577Z,100.00
2023-02-03T02:34:49.367Z,100.00
2023-02-03T02:37:38.308Z,100.00
2023-02-03T02:40:04.784Z,100.00
2023-02-03T02:43:00.116Z,100.00
2023-02-03T02:45:34.314Z,100.00
2023-02-03T02:48:20.691Z,100.00
2023-02-03T02:50:53.361Z,100.00
2023-02-03T02:53:22.765Z,100.00
2023-02-03T02:55:51.606Z,100.00
2023-02-03T02:58:20.249Z,100.00
2023-02-03T03:00:47.313Z,100.00
2023-02-03T03:03:19.518Z,100.00
2023-02-03T03:05:54.060Z,100.00
2023-02-03T03:08:29.875Z,100.00
2023-02-03T03:10:58.362Z,100.00
2023-02-03T03:13:31.165Z,100.00
2023-02-03T03:16:01.601Z,100.00
2023-02-03T03:18:33.506Z,100.00
2023-02-03T03:21:06.178Z,100.00
2023-02-03T03:23:40.014Z,100.00
2023-02-03T03:26:22.569Z,100.00
2023-02-03T03:28:52.746Z,100.00
2023-02-03T03:31:20.532Z,100.00
2023-02-03T03:33:48.414Z,100.00
2023-02-03T03:36:21.668Z,100.00
2023-02-03T03:38:56.659Z,100.00
2023-02-03T03:41:48.172Z,100.00
2023-02-03T03:44:16.805Z,100.00
2023-02-03T03:46:50.441Z,100.00
2023-02-03T03:49:18.890Z,100.00
2023-02-03T03:51:54.273Z,100.00
2023-02-03T03:54:23.361Z,100.00
2023-02-03T03:57:05.537Z,100.00
2023-02-03T03:59:35.655Z,100.00
2023-02-03T04:02:04.953Z,100.00
2023-02-03T04:04:35.637Z,100.00
2023-02-03T04:07:02.193Z,100.00
2023-02-03T04:09:28.756Z,100.00
2023-02-03T04:12:01.297Z,100.00
2023-02-03T04:14:30.057Z,100.00
2023-02-03T04:16:57.886Z,100.00
2023-02-03T04:19:24.599Z,100.00
2023-02-03T04:21:51.206Z,100.00
2023-02-03T04:24:18.053Z,100.00
2023-02-03T04:26:44.701Z,100.00
2023-02-03T04:29:11.290Z,100.00
2023-02-03T04:31:38.733Z,100.00
2023-02-03T04:34:06.068Z,100.00
2023-02-03T04:36:32.661Z,100.00
2023-02-03T04:38:59.161Z,100.00
2023-02-03T04:41:25.678Z,100.00
2023-02-03T04:43:52.195Z,100.00
2023-02-03T04:46:19.022Z,100.00
2023-02-03T04:48:45.560Z,100.00
2023-02-03T04:51:12.045Z,100.00
2023-02-03T04:53:38.589Z,100.00
2023-02-03T04:56:05.450Z,100.00
2023-02-03T04:58:32.011Z,100.00
2023-02-03T05:00:58.695Z,100.00
2023-02-03T05:03:26.450Z,100.00
2023-02-03T05:05:56.341Z,100.00
2023-02-03T05:08:22.832Z,100.00
2023-02-03T05:10:49.382Z,100.00
2023-02-03T05:13:15.906Z,100.00
2023-02-03T05:15:42.417Z,100.00
2023-02-03T05:18:08.931Z,100.00
2023-02-03T05:20:35.422Z,100.00
2023-02-03T05:23:02.015Z,100.00
2023-02-03T05:25:28.618Z,100.00
2023-02-03T05:27:55.175Z,100.00
2023-02-03T05:30:21.719Z,100.00
2023-02-03T05:32:49.888Z,100.00
2023-02-03T05:35:16.477Z,100.00
2023-02-03T05:37:46.303Z,100.00
2023-02-03T05:40:32.520Z,100.00
2023-02-03T05:42:59.110Z,100.00
2023-02-03T05:45:25.714Z,100.00
2023-02-03T05:47:52.269Z,100.00
2023-02-03T05:50:18.833Z,100.00
2023-02-03T05:52:45.354Z,100.00
2023-02-03T05:55:11.911Z,100.00
2023-02-03T05:57:38.429Z,100.00
2023-02-03T06:00:07.311Z,100.00
2023-02-03T06:02:33.820Z,100.00
2023-02-03T06:05:00.358Z,100.00
2023-02-03T06:07:26.913Z,100.00
2023-02-03T06:09:53.634Z,100.00
2023-02-03T06:12:20.146Z,100.00
2023-02-03T06:14:46.652Z,100.00
2023-02-03T06:17:13.168Z,100.00
2023-02-03T06:19:39.715Z,100.00
2023-02-03T06:22:06.233Z,100.00
2023-02-03T06:24:32.729Z,100.00
2023-02-03T06:26:59.269Z,100.00
2023-02-03T06:29:25.799Z,100.00
2023-02-03T06:31:52.516Z,100.00
2023-02-03T06:34:19.205Z,100.00
2023-02-03T06:36:45.799Z,100.00
2023-02-03T06:39:12.300Z,100.00
2023-02-03T06:41:38.808Z,100.00
2023-02-03T06:44:05.402Z,100.00
2023-02-03T06:46:33.847Z,100.00
2023-02-03T06:49:00.446Z,100.00
2023-02-03T06:51:27.067Z,100.00
2023-02-03T06:53:53.585Z,100.00
2023-02-03T06:56:20.111Z,100.00
2023-02-03T06:58:46.619Z,100.00
2023-02-03T07:01:13.232Z,100.00
2023-02-03T07:03:39.807Z,100.00
2023-02-03T07:06:06.657Z,100.00
2023-02-03T07:08:33.451Z,100.00
2023-02-03T07:11:00.002Z,100.00
2023-02-03T07:13:26.576Z,100.00
2023-02-03T07:15:53.188Z,100.00
2023-02-03T07:18:45.790Z,100.00
2023-02-03T07:21:11.574Z,100.00
2023-02-03T07:23:38.086Z,98.89
2023-02-03T07:26:06.573Z,96.23
2023-02-03T07:28:34.219Z,94.27
2023-02-03T07:31:01.180Z,94.01
2023-02-03T07:33:28.400Z,95.43
2023-02-03T07:35:56.584Z,95.56
2023-02-03T07:38:23.922Z,95.16
2023-02-03T07:40:50.601Z,94.20
2023-02-03T07:43:17.515Z,92.28
2023-02-03T07:45:44.629Z,90.92
2023-02-03T07:48:12.247Z,87.14
2023-02-03T07:50:39.760Z,87.53
2023-02-03T07:53:09.285Z,88.75
2023-02-03T07:55:39.066Z,89.65
2023-02-03T07:58:06.360Z,93.36
2023-02-03T08:00:33.463Z,94.36
2023-02-03T08:03:00.754Z,91.77
2023-02-03T08:05:27.514Z,91.20
2023-02-03T08:07:54.188Z,91.96
2023-02-03T08:10:20.972Z,90.92
2023-02-03T08:12:48.142Z,89.31
2023-02-03T08:15:15.174Z,89.27
2023-02-03T08:17:42.207Z,87.46
2023-02-03T08:20:10.070Z,85.08
2023-02-03T08:22:36.625Z,82.44
2023-02-03T08:25:03.984Z,81.46
2023-02-03T08:27:31.639Z,80.84
2023-02-03T08:29:58.581Z,81.97
2023-02-03T08:32:25.688Z,82.06
2023-02-03T08:34:52.688Z,80.55
2023-02-03T08:37:22.676Z,80.85
2023-02-03T08:39:49.373Z,79.81
2023-02-03T08:42:16.382Z,76.95
2023-02-03T08:44:44.113Z,76.32
2023-02-03T08:47:11.506Z,75.15
2023-02-03T08:49:39.573Z,75.02
2023-02-03T08:52:08.483Z,76.99
2023-02-03T08:54:35.043Z,76.13
2023-02-03T08:57:01.786Z,75.32
2023-02-03T08:59:29.290Z,74.85
2023-02-03T09:01:56.241Z,74.10
2023-02-03T09:04:25.626Z,72.54
2023-02-03T09:06:56.229Z,70.54
2023-02-03T09:09:23.608Z,71.32
2023-02-03T09:11:50.314Z,68.64
2023-02-03T09:14:16.826Z,67.89
2023-02-03T09:16:43.535Z,69.19
2023-02-03T09:19:10.256Z,66.78
2023-02-03T09:21:37.534Z,68.05
2023-02-03T09:24:13.736Z,63.75
2023-02-03T09:26:40.421Z,64.49
2023-02-03T09:29:07.813Z,64.67
2023-02-03T09:31:34.399Z,65.55
2023-02-03T09:34:00.957Z,66.55
2023-02-03T09:36:27.478Z,63.08
2023-02-03T09:38:54.063Z,67.94
2023-02-03T09:41:37.273Z,65.86
2023-02-03T09:44:04.782Z,65.83
2023-02-03T09:46:41.021Z,62.66
2023-02-03T09:49:33.461Z,66.41
2023-02-03T09:52:08.685Z,67.53
2023-02-03T09:54:43.408Z,63.87
2023-02-03T09:57:18.470Z,61.81
2023-02-03T09:59:45.029Z,64.34
2023-02-03T10:02:36.066Z,62.79
2023-02-03T10:05:25.287Z,64.60
2023-02-03T10:08:02.453Z,65.34
2023-02-03T10:10:45.359Z,65.74
2023-02-03T10:13:17.440Z,67.95
2023-02-03T10:16:04.157Z,67.88
2023-02-03T10:18:45.813Z,68.08
2023-02-03T10:21:35.152Z,64.58
2023-02-03T10:24:06.113Z,68.83
2023-02-03T10:26:32.676Z,66.44
2023-02-03T10:29:21.414Z,67.28
2023-02-03T10:31:48.517Z,66.15
2023-02-03T10:34:18.022Z,66.44
2023-02-03T10:36:57.445Z,65.30
2023-02-03T10:39:26.758Z,65.16
2023-02-03T10:41:54.023Z,64.15
2023-02-03T10:44:24.209Z,64.64
2023-02-03T10:46:50.791Z,65.14
2023-02-03T10:49:19.087Z,62.12
2023-02-03T10:51:51.955Z,63.25
2023-02-03T10:54:38.174Z,63.73
2023-02-03T10:57:14.760Z,62.92
2023-02-03T10:59:44.260Z,64.14
2023-02-03T11:02:21.603Z,62.89
2023-02-03T11:04:48.224Z,63.42
2023-02-03T11:07:26.879Z,61.70
2023-02-03T11:09:53.277Z,60.51
2023-02-03T11:12:20.150Z,61.64
2023-02-03T11:14:51.896Z,60.28
2023-02-03T11:17:27.520Z,58.33
2023-02-03T11:20:01.310Z,60.31
2023-02-03T11:22:35.668Z,58.58
2023-02-03T11:25:04.971Z,59.50
2023-02-03T11:27:33.613Z,58.39
2023-02-03T11:30:18.655Z,59.47
2023-02-03T11:32:47.976Z,59.47
2023-02-03T11:35:24.218Z,60.07
2023-02-03T11:37:56.243Z,59.53
2023-02-03T11:40:33.859Z,60.31
2023-02-03T11:43:04.335Z,58.19
2023-02-03T11:45:44.464Z,58.55
2023-02-03T11:48:10.971Z,59.68
2023-02-03T11:50:55.710Z,58.50
2023-02-03T11:53:55.245Z,58.55
2023-02-03T11:56:55.114Z,58.40
2023-02-03T11:59:41.078Z,59.19
2023-02-03T12:02:33.598Z,57.88
2023-02-03T12:05:15.358Z,58.59
2023-02-03T12:07:41.926Z,59.84
2023-02-03T12:10:30.659Z,60.55
2023-02-03T12:13:10.410Z,60.74
2023-02-03T12:15:50.401Z,60.05
2023-02-03T12:18:26.052Z,59.22
2023-02-03T12:21:00.946Z,58.88
2023-02-03T12:24:04.431Z,59.55
2023-02-03T12:26:41.462Z,60.08
2023-02-03T12:29:17.032Z,59.93
2023-02-03T12:32:14.283Z,61.10
2023-02-03T12:34:50.705Z,61.69
2023-02-03T12:37:43.869Z,62.54
2023-02-03T12:40:26.588Z,63.63
2023-02-03T12:43:02.851Z,63.51
2023-02-03T12:45:36.611Z,62.54
2023-02-03T12:48:12.012Z,62.76
2023-02-03T12:50:54.044Z,62.20
2023-02-03T12:53:29.178Z,62.66
2023-02-03T12:56:10.984Z,63.85
2023-02-03T12:58:57.429Z,64.51
2023-02-03T13:01:34.438Z,64.53
2023-02-03T13:04:06.539Z,65.01
2023-02-03T13:07:03.997Z,66.08
2023-02-03T13:10:01.549Z,66.49
2023-02-03T13:12:42.825Z,67.49
2023-02-03T13:15:27.320Z,67.38
2023-02-03T13:18:21.920Z,68.48
2023-02-03T13:20:48.558Z,68.63
2023-02-03T13:23:16.036Z,69.61
2023-02-03T13:25:57.834Z,70.26
2023-02-03T13:29:08.656Z,71.46
2023-02-03T13:31:56.545Z,72.09
2023-02-03T13:34:28.857Z,73.00
2023-02-03T13:37:21.733Z,72.32
2023-02-03T13:39:48.258Z,72.67
2023-02-03T13:42:21.533Z,72.95
2023-02-03T13:44:52.921Z,73.29
2023-02-03T13:47:25.932Z,74.11
2023-02-03T13:50:03.099Z,72.03
2023-02-03T13:52:35.874Z,73.16
2023-02-03T13:55:03.510Z,73.83
2023-02-03T13:57:34.604Z,73.15
2023-02-03T14:00:03.573Z,73.16
2023-02-03T14:02:42.044Z,74.24
2023-02-03T14:05:39.303Z,73.65
2023-02-03T14:08:27.729Z,73.38
2023-02-03T14:11:31.935Z,73.21
2023-02-03T14:14:07.579Z,73.94
2023-02-03T14:16:48.530Z,73.87
2023-02-03T14:19:30.321Z,74.41
2023-02-03T14:22:02.717Z,75.08
2023-02-03T14:24:38.366Z,74.10
2023-02-03T14:27:23.965Z,75.00
2023-02-03T14:30:22.835Z,76.04
2023-02-03T14:32:51.987Z,75.53
2023-02-03T14:35:40.692Z,77.55
2023-02-03T14:38:09.192Z,77.72
2023-02-03T14:40:46.714Z,77.95
2023-02-03T14:43:38.198Z,76.92
2023-02-03T14:46:10.717Z,77.75
2023-02-03T14:48:40.171Z,77.41
2023-02-03T14:51:29.191Z,77.55
2023-02-03T14:54:31.032Z,78.22
2023-02-03T14:57:21.671Z,78.88
2023-02-03T15:00:06.850Z,77.53
2023-02-03T15:02:34.631Z,79.26
2023-02-03T15:05:13.362Z,80.11
2023-02-03T15:07:48.582Z,80.11
2023-02-03T15:10:17.352Z,81.62
2023-02-03T15:12:52.476Z,81.65
2023-02-03T15:15:22.071Z,82.15
2023-02-03T15:17:50.204Z,81.89
2023-02-03T15:20:31.632Z,82.84
2023-02-03T15:22:58.560Z,82.27
2023-02-03T15:25:28.009Z,83.76
2023-02-03T15:27:54.709Z,84.07
2023-02-03T15:30:27.580Z,85.23
2023-02-03T15:33:05.413Z,85.19
2023-02-03T15:35:34.020Z,86.50
2023-02-03T15:38:04.444Z,86.78
2023-02-03T15:40:38.583Z,87.24
2023-02-03T15:43:16.470Z,89.09
2023-02-03T15:46:03.323Z,88.89
2023-02-03T15:48:48.070Z,87.96
2023-02-03T15:51:18.183Z,89.65
2023-02-03T15:53:52.313Z,90.06
2023-02-03T15:56:28.420Z,91.23
2023-02-03T15:58:55.054Z,90.90
2023-02-03T16:01:24.011Z,91.38
2023-02-03T16:03:54.189Z,92.19
2023-02-03T16:06:27.540Z,92.09
2023-02-03T16:08:55.498Z,92.60
2023-02-03T16:11:22.178Z,93.44
2023-02-03T16:13:48.750Z,93.15
2023-02-03T16:16:18.085Z,92.77
2023-02-03T16:18:56.959Z,93.84
2023-02-03T16:21:56.957Z,95.66
2023-02-03T16:24:32.274Z,94.01
2023-02-03T16:27:25.045Z,93.91
2023-02-03T16:30:25.520Z,94.59
2023-02-03T16:33:32.904Z,96.67
2023-02-03T16:36:28.320Z,98.55
2023-02-03T16:39:13.954Z,98.41
2023-02-03T16:41:59.392Z,99.41
2023-02-03T16:44:44.784Z,100.00
2023-02-03T16:47:43.357Z,100.00
2023-02-03T16:50:40.140Z,100.00
2023-02-03T16:53:12.509Z,100.00
2023-02-03T16:55:39.089Z,100.00
2023-02-03T16:58:05.782Z,100.00
2023-02-03T17:00:32.583Z,100.00
2023-02-03T17:03:02.992Z,100.00
2023-02-03T17:05:32.417Z,100.00
2023-02-03T17:07:59.192Z,100.00
2023-02-03T17:10:26.504Z,100.00
2023-02-03T17:12:53.063Z,100.00
2023-02-03T17:15:19.611Z,100.00
2023-02-03T17:17:46.132Z,100.00
2023-02-03T17:20:12.893Z,100.00
2023-02-03T17:22:39.506Z,100.00
2023-02-03T17:25:06.409Z,100.00
2023-02-03T17:27:33.119Z,100.00
2023-02-03T17:29:59.709Z,100.00
2023-02-03T17:32:26.307Z,100.00
2023-02-03T17:34:52.874Z,100.00
2023-02-03T17:37:19.420Z,100.00
2023-02-03T17:53:29.869Z,100.00
2023-02-03T17:55:56.465Z,100.00
2023-02-03T17:58:23.084Z,100.00
2023-02-03T18:00:49.910Z,100.00
2023-02-03T18:03:16.574Z,100.00
2023-02-03T18:05:52.683Z,100.00
2023-02-03T18:08:20.580Z,100.00
2023-02-03T18:10:51.218Z,100.00
2023-02-03T18:13:18.371Z,100.00
2023-02-03T18:15:44.973Z,100.00
2023-02-03T18:18:11.620Z,100.00
2023-02-03T18:20:38.231Z,100.00
2023-02-03T18:23:04.830Z,100.00
2023-02-03T18:25:31.521Z,100.00
2023-02-03T18:27:58.245Z,100.00
2023-02-03T18:30:25.038Z,100.00
2023-02-03T18:32:52.632Z,100.00
2023-02-03T18:35:19.527Z,100.00
2023-02-03T18:37:46.279Z,100.00
2023-02-03T18:40:13.059Z,100.00
2023-02-03T18:42:39.754Z,100.00
2023-02-03T18:45:06.950Z,100.00
2023-02-03T18:47:34.151Z,100.00
2023-02-03T18:50:00.911Z,100.00
2023-02-03T18:52:27.593Z,100.00
2023-02-03T18:54:54.353Z,100.00
2023-02-03T18:57:22.571Z,100.00
2023-02-03T18:59:49.722Z,100.00
2023-02-03T19:02:16.441Z,100.00
2023-02-03T19:04:43.477Z,100.00
2023-02-03T19:07:12.334Z,100.00
2023-02-03T19:09:40.056Z,100.00
2023-02-03T19:12:07.872Z,100.00
2023-02-03T19:14:35.555Z,100.00
2023-02-03T19:17:03.643Z,100.00
2023-02-03T19:19:30.393Z,100.00
2023-02-03T19:21:58.552Z,100.00
2023-02-03T19:24:26.857Z,100.00
2023-02-03T19:26:53.877Z,100.00
2023-02-03T19:29:20.520Z,100.00
2023-02-03T19:31:47.259Z,100.00
2023-02-03T19:34:17.388Z,100.00
2023-02-03T19:36:44.190Z,100.00
2023-02-03T19:39:11.034Z,100.00
2023-02-03T19:41:37.594Z,100.00
2023-02-03T19:44:05.931Z,100.00
2023-02-03T19:46:38.229Z,100.00
2023-02-03T19:49:13.249Z,100.00
2023-02-03T19:51:41.072Z,100.00
2023-02-03T19:54:10.667Z,100.00
2023-02-03T19:56:37.367Z,100.00
2023-02-03T19:59:04.689Z,100.00
2023-02-03T20:01:31.507Z,100.00
2023-02-03T20:03:58.560Z,100.00
2023-02-03T20:06:25.977Z,100.00
2023-02-03T20:08:52.951Z,100.00
2023-02-03T20:11:20.420Z,100.00
2023-02-03T20:13:47.184Z,100.00
2023-02-03T20:16:14.115Z,100.00
2023-02-03T20:18:40.885Z,100.00
2023-02-03T20:21:07.472Z,100.00
2023-02-03T20:23:34.216Z,100.00
2023-02-03T20:26:01.685Z,100.00
2023-02-03T20:28:29.214Z,100.00
2023-02-03T20:30:58.246Z,100.00
2023-02-03T20:33:27.574Z,100.00
2023-02-03T20:35:55.506Z,100.00
2023-02-03T20:38:22.151Z,100.00
2023-02-03T20:40:49.317Z,100.00
2023-02-03T20:43:25.108Z,100.00
2023-02-03T20:45:52.594Z,100.00
2023-02-03T20:48:22.422Z,100.00
2023-02-03T20:50:50.226Z,100.00
2023-02-03T20:53:19.870Z,100.00
2023-02-03T20:55:47.290Z,100.00
2023-02-03T20:58:23.403Z,100.00
2023-02-03T21:00:50.830Z,100.00
2023-02-03T21:03:38.256Z,100.00
2023-02-03T21:06:23.238Z,100.00
2023-02-03T21:08:49.953Z,100.00
2023-02-03T21:11:19.243Z,100.00
2023-02-03T21:13:47.561Z,100.00
2023-02-03T21:16:28.664Z,100.00
2023-02-03T21:19:00.409Z,100.00
2023-02-03T21:21:39.627Z,100.00
2023-02-03T21:24:29.537Z,100.00
2023-02-03T21:26:57.520Z,100.00
2023-02-03T21:29:29.054Z,100.00
2023-02-03T21:31:56.130Z,100.00
2023-02-03T21:34:34.390Z,100.00
2023-02-03T21:37:41.439Z,100.00
2023-02-03T21:40:18.260Z,100.00
2023-02-03T21:42:46.547Z,100.00
2023-02-03T21:45:21.810Z,100.00
2023-02-03T21:47:51.412Z,100.00
2023-02-03T21:50:35.900Z,100.00
2023-02-03T21:53:05.246Z,100.00
2023-02-03T21:55:31.821Z,100.00
2023-02-03T21:57:58.522Z,100.00
2023-02-03T22:00:43.482Z,100.00
2023-02-03T22:03:22.639Z,100.00
2023-02-03T22:05:49.301Z,100.00
2023-02-03T22:08:23.122Z,100.00
2023-02-03T22:10:50.232Z,100.00
2023-02-03T22:13:17.882Z,100.00
2023-02-03T22:15:44.531Z,100.00
2023-02-03T22:18:11.086Z,100.00
2023-02-03T22:20:37.583Z,100.00
2023-02-03T22:23:04.323Z,100.00
2023-02-03T22:25:30.982Z,100.00
2023-02-03T22:27:57.680Z,100.00
2023-02-03T22:30:24.372Z,100.00
2023-02-03T22:32:50.900Z,100.00
2023-02-03T22:35:17.511Z,100.00
2023-02-03T22:37:44.176Z,100.00
2023-02-03T22:40:11.434Z,100.00
2023-02-03T22:42:37.922Z,100.00
2023-02-03T22:45:05.141Z,100.00
2023-02-03T22:47:31.673Z,100.00
2023-02-03T22:49:58.238Z,100.00
2023-02-03T22:52:24.786Z,100.00
2023-02-03T22:54:51.344Z,100.00
2023-02-03T22:57:17.940Z,100.00
2023-02-03T22:59:44.498Z,100.00
2023-02-03T23:02:11.074Z,100.00
2023-02-03T23:04:37.648Z,100.00
2023-02-03T23:07:04.229Z,100.00
2023-02-03T23:09:30.981Z,100.00
2023-02-03T23:11:57.616Z,100.00
2023-02-03T23:14:24.189Z,100.00
2023-02-03T23:16:50.875Z,100.00
2023-02-03T23:19:17.505Z,100.00
2023-02-03T23:21:44.080Z,100.00
2023-02-03T23:24:10.673Z,100.00
2023-02-03T23:26:37.205Z,100.00
2023-02-03T23:29:03.796Z,100.00
2023-02-03T23:31:30.420Z,100.00
2023-02-03T23:34:15.714Z,100.00
2023-02-03T23:36:42.218Z,100.00
2023-02-03T23:39:08.775Z,100.00
2023-02-03T23:41:35.433Z,100.00
2023-02-03T23:44:01.963Z,100.00
2023-02-03T23:46:28.731Z,100.00
2023-02-03T23:48:55.319Z,100.00
2023-02-03T23:51:21.924Z,100.00
2023-02-03T23:53:48.429Z,100.00
2023-02-03T23:56:16.112Z,100.00
2023-02-03T23:58:42.612Z,100.00
